Time;durP1;ratioP1;P1;durP2;ratioP2;P2;SDS_P1;SDS_P2;PMS_P1;PMS_P2;Temp;Humidity;BMP_temperature;BMP_pressure;BME280_temperature;BME280_humidity;BME280_pressure;Samples;Min_cycle;Max_cycle;Signal;HPM_P1;HPM_P2
2023/03/06 00:01:47;;;;;;;;;;;2.10;99.90;;;;;;5072401;28;19945;-39
2023/03/06 00:04:14;;;;;;;;;;;2.10;99.90;;;;;;5074853;28;19940;-41
2023/03/06 00:06:40;;;;;;;;;;;2.20;99.90;;;;;;5083803;28;19950;-43
2023/03/06 00:09:08;;;;;;;;;;;2.20;99.90;;;;;;5097258;28;19947;-44
2023/03/06 00:11:36;;;;;;;;;;;2.10;99.90;;;;;;5099465;28;20002;-41
2023/03/06 00:14:02;;;;;;;;;;;2.10;99.90;;;;;;5089187;28;20447;-42
2023/03/06 00:16:29;;;;;;;;;;;2.10;99.90;;;;;;5068722;28;20022;-44
2023/03/06 00:18:55;;;;;;;;;;;2.10;99.90;;;;;;5074368;28;20009;-45
2023/03/06 00:21:22;;;;;;;;;;;2.10;99.90;;;;;;5091745;28;20408;-42
2023/03/06 00:23:49;;;;;;;;;;;2.20;99.90;;;;;;5092461;28;20303;-43
2023/03/06 00:26:15;;;;;;;;;;;2.20;99.90;;;;;;5092037;28;20004;-43
2023/03/06 00:28:43;;;;;;;;;;;2.20;99.90;;;;;;5073982;28;19985;-43
2023/03/06 00:31:10;;;;;;;;;;;2.20;99.90;;;;;;5074861;28;19992;-39
2023/03/06 00:33:37;;;;;;;;;;;2.20;99.90;;;;;;5091279;28;19990;-42
2023/03/06 00:36:04;;;;;;;;;;;2.20;99.90;;;;;;5076687;28;19968;-45
2023/03/06 00:38:34;;;;;;;;;;;2.20;99.90;;;;;;5103057;28;19989;-45
2023/03/06 00:41:06;;;;;;;;;;;2.20;99.90;;;;;;5095849;28;20318;-42
2023/03/06 00:43:32;;;;;;;;;;;2.30;99.90;;;;;;5089582;28;19942;-43
2023/03/06 00:46:00;;;;;;;;;;;2.20;99.90;;;;;;5093425;28;19946;-43
2023/03/06 00:48:27;;;;;;;;;;;2.20;99.90;;;;;;5077057;28;20042;-42
2023/03/06 00:50:53;;;;;;;;;;;2.20;99.90;;;;;;5070871;28;19955;-42
2023/03/06 00:53:20;;;;;;;;;;;2.30;99.90;;;;;;5094642;28;19998;-40
2023/03/06 00:55:47;;;;;;;;;;;2.30;99.90;;;;;;5107607;28;20004;-41
2023/03/06 00:58:13;;;;;;;;;;;2.20;99.90;;;;;;5072577;28;19995;-42
2023/03/06 01:00:40;;;;;;;;;;;2.30;99.90;;;;;;5091621;28;20434;-43
2023/03/06 01:03:08;;;;;;;;;;;2.30;99.90;;;;;;5092169;28;19998;-41
2023/03/06 01:05:35;;;;;;;;;;;2.30;99.90;;;;;;5088191;28;20012;-41
2023/03/06 01:08:02;;;;;;;;;;;2.30;99.90;;;;;;5071933;28;19988;-40
2023/03/06 01:10:28;;;;;;;;;;;2.30;99.90;;;;;;5076214;28;20405;-44
2023/03/06 01:12:55;;;;;;;;;;;2.30;99.90;;;;;;5089929;28;19981;-41
2023/03/06 01:15:22;;;;;;;;;;;2.30;99.90;;;;;;5102342;28;20009;-42
2023/03/06 01:17:51;;;;;;;;;;;2.30;99.90;;;;;;5104203;28;19968;-44
2023/03/06 01:20:19;;;;;;;;;;;2.30;99.90;;;;;;5087861;28;19945;-46
2023/03/06 01:22:46;;;;;;;;;;;2.30;99.90;;;;;;5088674;28;19947;-40
2023/03/06 01:25:13;;;;;;;;;;;2.30;99.90;;;;;;5076225;28;19977;-43
2023/03/06 01:27:39;;;;;;;;;;;2.40;99.90;;;;;;5069102;28;20466;-44
2023/03/06 01:30:06;;;;;;;;;;;2.30;99.90;;;;;;5097646;28;20431;-44
2023/03/06 01:32:33;;;;;;;;;;;2.40;99.90;;;;;;5069187;28;20397;-47
2023/03/06 01:35:00;;;;;;;;;;;2.40;99.90;;;;;;5072876;28;20482;-47
2023/03/06 01:37:28;;;;;;;;;;;2.40;99.90;;;;;;5075744;28;20385;-43
2023/03/06 01:39:54;;;;;;;;;;;2.40;99.90;;;;;;5091801;28;19978;-42
2023/03/06 01:42:21;;;;;;;;;;;2.40;99.90;;;;;;5088910;28;19951;-40
2023/03/06 01:45:01;;;;;;;;;;;2.40;99.90;;;;;;5101946;28;19947;-46
2023/03/06 01:47:27;;;;;;;;;;;2.50;99.90;;;;;;5106203;28;20412;-43
2023/03/06 01:49:54;;;;;;;;;;;2.50;99.90;;;;;;5111223;28;19942;-43
2023/03/06 01:52:21;;;;;;;;;;;2.50;99.90;;;;;;5072635;28;20048;-45
2023/03/06 01:54:50;;;;;;;;;;;2.50;99.90;;;;;;5072067;28;19984;-43
2023/03/06 01:57:17;;;;;;;;;;;2.50;99.90;;;;;;5071411;28;19981;-43
2023/03/06 01:59:44;;;;;;;;;;;2.60;99.90;;;;;;5074291;28;19997;-42
2023/03/06 02:02:11;;;;;;;;;;;2.50;99.90;;;;;;5103331;28;20022;-44
2023/03/06 02:04:38;;;;;;;;;;;2.60;99.90;;;;;;5075503;28;20478;-40
2023/03/06 02:07:05;;;;;;;;;;;2.50;99.90;;;;;;5095714;28;20461;-42
2023/03/06 02:09:33;;;;;;;;;;;2.60;99.90;;;;;;5082418;28;19982;-44
2023/03/06 02:12:01;;;;;;;;;;;2.60;99.90;;;;;;5085596;28;20399;-43
2023/03/06 02:14:27;;;;;;;;;;;2.60;99.90;;;;;;5108771;28;19943;-43
2023/03/06 02:16:54;;;;;;;;;;;2.60;99.90;;;;;;5093063;28;20004;-40
2023/03/06 02:19:28;;;;;;;;;;;2.60;99.90;;;;;;5109035;28;20110;-42
2023/03/06 02:21:55;;;;;;;;;;;2.60;99.90;;;;;;5102181;28;20031;-45
2023/03/06 02:24:23;;;;;;;;;;;2.70;99.90;;;;;;5091969;28;20682;-44
2023/03/06 02:26:51;;;;;;;;;;;2.70;99.90;;;;;;5092544;28;20002;-39
2023/03/06 02:29:20;;;;;;;;;;;2.70;99.90;;;;;;5079880;28;19991;-42
2023/03/06 02:31:47;;;;;;;;;;;2.70;99.90;;;;;;5102106;28;20476;-44
2023/03/06 02:34:32;;;;;;;;;;;2.70;99.90;;;;;;5093221;28;19993;-46
2023/03/06 02:37:00;;;;;;;;;;;2.70;99.90;;;;;;5073137;28;20482;-44
2023/03/06 02:39:26;;;;;;;;;;;2.70;99.90;;;;;;5074467;28;20406;-46
2023/03/06 02:41:54;;;;;;;;;;;2.70;99.90;;;;;;5092331;28;19971;-42
2023/03/06 02:44:21;;;;;;;;;;;2.80;99.90;;;;;;5091594;28;20462;-48
2023/03/06 02:46:48;;;;;;;;;;;2.70;99.90;;;;;;5077558;28;20459;-44
2023/03/06 02:49:14;;;;;;;;;;;2.80;99.90;;;;;;5113859;28;19941;-44
2023/03/06 02:51:41;;;;;;;;;;;2.70;99.90;;;;;;5098859;28;19943;-42
2023/03/06 02:54:08;;;;;;;;;;;2.70;99.90;;;;;;5079055;28;19996;-44
2023/03/06 02:56:34;;;;;;;;;;;2.80;99.90;;;;;;5073245;28;20415;-44
2023/03/06 02:59:02;;;;;;;;;;;2.80;99.90;;;;;;5092479;28;19976;-44
2023/03/06 03:01:29;;;;;;;;;;;2.80;99.90;;;;;;5077790;28;19953;-46
2023/03/06 03:03:55;;;;;;;;;;;2.80;99.90;;;;;;5091939;28;19942;-44
2023/03/06 03:06:22;;;;;;;;;;;2.80;99.90;;;;;;5095298;28;19944;-41
2023/03/06 03:08:49;;;;;;;;;;;2.80;99.90;;;;;;5092176;28;19988;-43
2023/03/06 03:11:16;;;;;;;;;;;2.80;99.90;;;;;;5074756;28;19989;-41
2023/03/06 03:13:42;;;;;;;;;;;2.80;99.90;;;;;;5074647;28;19984;-45
2023/03/06 03:16:12;;;;;;;;;;;2.80;99.90;;;;;;5082026;28;20022;-45
2023/03/06 03:18:39;;;;;;;;;;;2.80;99.90;;;;;;5099013;28;20443;-42
2023/03/06 03:21:06;;;;;;;;;;;2.90;99.90;;;;;;5074049;28;20036;-41
2023/03/06 03:23:33;;;;;;;;;;;2.80;99.90;;;;;;5093145;28;20014;-39
2023/03/06 03:26:05;;;;;;;;;;;2.80;99.90;;;;;;5074729;28;20290;-46
2023/03/06 03:28:32;;;;;;;;;;;2.80;99.90;;;;;;5092646;28;19951;-47
2023/03/06 03:31:01;;;;;;;;;;;2.90;99.90;;;;;;5110968;28;19990;-46
2023/03/06 03:33:29;;;;;;;;;;;2.90;99.90;;;;;;5101696;28;19944;-46
2023/03/06 03:35:57;;;;;;;;;;;2.90;99.90;;;;;;5073816;28;20060;-45
2023/03/06 03:38:23;;;;;;;;;;;2.90;99.90;;;;;;5086348;28;20445;-44
2023/03/06 03:40:50;;;;;;;;;;;2.90;99.90;;;;;;5108015;28;19947;-46
2023/03/06 03:43:17;;;;;;;;;;;2.90;99.90;;;;;;5092539;28;20418;-44
2023/03/06 03:45:43;;;;;;;;;;;2.90;99.90;;;;;;5099312;28;19940;-43
2023/03/06 03:48:10;;;;;;;;;;;2.90;99.90;;;;;;5073431;28;19959;-45
2023/03/06 03:50:38;;;;;;;;;;;2.90;99.90;;;;;;5106515;28;20024;-50
2023/03/06 03:53:05;;;;;;;;;;;2.90;99.90;;;;;;5074275;28;19949;-47
2023/03/06 03:55:31;;;;;;;;;;;3.00;99.90;;;;;;5085197;28;20006;-42
2023/03/06 03:57:58;;;;;;;;;;;2.90;99.90;;;;;;5082090;28;20024;-46
2023/03/06 04:00:24;;;;;;;;;;;2.90;99.90;;;;;;5073475;28;20618;-47
2023/03/06 04:02:51;;;;;;;;;;;2.90;99.90;;;;;;5073235;28;20277;-45
2023/03/06 04:05:18;;;;;;;;;;;2.80;99.90;;;;;;5090298;28;19980;-47
2023/03/06 04:07:46;;;;;;;;;;;2.90;99.90;;;;;;5074250;28;20029;-49
2023/03/06 04:10:13;;;;;;;;;;;2.90;99.90;;;;;;5089711;28;20036;-46
2023/03/06 04:12:42;;;;;;;;;;;2.90;99.90;;;;;;5089918;28;20410;-44
2023/03/06 04:15:09;;;;;;;;;;;2.90;99.90;;;;;;5094047;28;20354;-43
2023/03/06 04:17:36;;;;;;;;;;;2.90;99.90;;;;;;5073332;28;20379;-46
2023/03/06 04:20:03;;;;;;;;;;;2.90;99.90;;;;;;5096782;28;19949;-46
2023/03/06 04:22:30;;;;;;;;;;;2.80;99.90;;;;;;5072884;28;20426;-45
2023/03/06 04:24:58;;;;;;;;;;;2.90;99.90;;;;;;5079401;28;19994;-48
2023/03/06 04:27:25;;;;;;;;;;;2.90;99.90;;;;;;5110107;28;20331;-44
2023/03/06 04:29:55;;;;;;;;;;;2.80;99.90;;;;;;5089120;28;20070;-44
2023/03/06 04:32:21;;;;;;;;;;;2.90;99.90;;;;;;5095890;28;19993;-44
2023/03/06 04:34:48;;;;;;;;;;;2.80;99.90;;;;;;5092139;28;19985;-47
2023/03/06 04:37:17;;;;;;;;;;;2.80;99.90;;;;;;5092086;28;20005;-46
2023/03/06 04:39:44;;;;;;;;;;;2.80;99.90;;;;;;5097850;28;19943;-47
2023/03/06 04:42:12;;;;;;;;;;;2.80;99.90;;;;;;5078207;28;19946;-47
2023/03/06 04:44:39;;;;;;;;;;;2.70;99.90;;;;;;5091638;28;19946;-41
2023/03/06 04:47:05;;;;;;;;;;;2.60;99.90;;;;;;5090053;28;19993;-41
2023/03/06 04:49:32;;;;;;;;;;;2.60;99.90;;;;;;5086014;28;20032;-44
2023/03/06 04:51:59;;;;;;;;;;;2.50;99.90;;;;;;5086736;28;19947;-47
2023/03/06 04:54:25;;;;;;;;;;;2.50;99.90;;;;;;5092085;28;19944;-46
2023/03/06 04:56:52;;;;;;;;;;;2.40;99.90;;;;;;5068816;28;20071;-44
2023/03/06 04:59:20;;;;;;;;;;;2.40;99.90;;;;;;5096086;28;20438;-48
2023/03/06 05:01:47;;;;;;;;;;;2.30;99.90;;;;;;5097539;28;20047;-46
2023/03/06 05:04:13;;;;;;;;;;;2.30;99.90;;;;;;5093470;28;20435;-40
2023/03/06 05:06:40;;;;;;;;;;;2.30;99.90;;;;;;5101427;28;20016;-48
2023/03/06 05:09:07;;;;;;;;;;;2.20;99.90;;;;;;5086132;28;20006;-47
2023/03/06 05:11:33;;;;;;;;;;;2.20;99.90;;;;;;5105436;28;19949;-44
2023/03/06 05:14:00;;;;;;;;;;;2.20;99.90;;;;;;5090480;28;20010;-45
2023/03/06 05:16:28;;;;;;;;;;;2.20;99.90;;;;;;5072720;28;19961;-43
2023/03/06 05:18:54;;;;;;;;;;;2.20;99.90;;;;;;5088160;28;20404;-47
2023/03/06 05:21:21;;;;;;;;;;;2.20;99.90;;;;;;5085119;28;19992;-47
2023/03/06 05:23:48;;;;;;;;;;;2.30;99.90;;;;;;5073149;28;20002;-44
2023/03/06 05:26:14;;;;;;;;;;;2.10;99.90;;;;;;5090459;28;19969;-44
2023/03/06 05:28:41;;;;;;;;;;;2.10;99.90;;;;;;5093368;28;20302;-42
2023/03/06 05:31:08;;;;;;;;;;;2.10;99.90;;;;;;5098976;28;20362;-41
2023/03/06 05:33:36;;;;;;;;;;;2.10;99.90;;;;;;5090896;28;20358;-43
2023/03/06 05:36:03;;;;;;;;;;;2.10;99.90;;;;;;5084813;28;20130;-44
2023/03/06 05:38:29;;;;;;;;;;;2.10;99.90;;;;;;5067916;28;19989;-41
2023/03/06 05:40:56;;;;;;;;;;;2.10;99.90;;;;;;5091658;28;19987;-43
2023/03/06 05:43:22;;;;;;;;;;;2.00;99.90;;;;;;5101808;28;19993;-44
2023/03/06 05:45:51;;;;;;;;;;;2.00;99.90;;;;;;5082385;28;19967;-45
2023/03/06 05:48:18;;;;;;;;;;;2.00;99.90;;;;;;5097260;28;19941;-43
2023/03/06 05:50:46;;;;;;;;;;;1.90;99.90;;;;;;5108895;28;19950;-46
2023/03/06 05:53:13;;;;;;;;;;;1.90;99.90;;;;;;5107130;28;19948;-41
2023/03/06 05:55:39;;;;;;;;;;;1.90;99.90;;;;;;5097992;28;20314;-43
2023/03/06 05:58:06;;;;;;;;;;;1.80;99.90;;;;;;5099605;28;20009;-44
2023/03/06 06:00:32;;;;;;;;;;;1.80;99.90;;;;;;5074112;28;20040;-47
2023/03/06 06:03:00;;;;;;;;;;;1.80;99.90;;;;;;5102652;28;19999;-41
2023/03/06 06:05:26;;;;;;;;;;;1.80;99.90;;;;;;5093307;28;19995;-42
2023/03/06 06:07:54;;;;;;;;;;;1.80;99.90;;;;;;5103947;28;19940;-43
2023/03/06 06:10:21;;;;;;;;;;;1.80;99.90;;;;;;5085728;28;20015;-41
2023/03/06 06:12:48;;;;;;;;;;;1.80;99.90;;;;;;5108731;28;19994;-43
2023/03/06 06:15:14;;;;;;;;;;;1.80;99.90;;;;;;5090713;28;20347;-39
2023/03/06 06:17:41;;;;;;;;;;;1.80;99.90;;;;;;5101849;28;20042;-44
2023/03/06 06:20:10;;;;;;;;;;;1.80;99.90;;;;;;5098011;28;19949;-41
2023/03/06 06:22:37;;;;;;;;;;;1.80;99.90;;;;;;5103912;28;20661;-44
2023/03/06 06:25:06;;;;;;;;;;;1.80;99.90;;;;;;5093099;28;20418;-43
2023/03/06 06:27:33;;;;;;;;;;;1.80;99.90;;;;;;5080841;28;19942;-47
2023/03/06 06:29:59;;;;;;;;;;;1.70;99.90;;;;;;5110161;28;19947;-40
2023/03/06 06:32:26;;;;;;;;;;;1.70;99.90;;;;;;5083652;28;20464;-43
2023/03/06 06:34:53;;;;;;;;;;;1.80;99.90;;;;;;5089336;28;20391;-43
2023/03/06 06:37:19;;;;;;;;;;;1.70;99.90;;;;;;5088747;28;20002;-39
2023/03/06 06:39:46;;;;;;;;;;;1.70;99.90;;;;;;5109851;28;19947;-42
2023/03/06 06:42:14;;;;;;;;;;;1.70;99.90;;;;;;5089643;28;19998;-42
2023/03/06 06:44:41;;;;;;;;;;;1.70;99.90;;;;;;5054063;28;19995;-42
2023/03/06 06:47:08;;;;;;;;;;;1.80;99.90;;;;;;5089375;28;20380;-44
2023/03/06 06:49:34;;;;;;;;;;;1.80;99.90;;;;;;5072349;28;20032;-40
2023/03/06 06:52:01;;;;;;;;;;;1.80;99.90;;;;;;5096626;28;19995;-44
2023/03/06 06:54:27;;;;;;;;;;;1.80;99.90;;;;;;5100543;28;19984;-42
2023/03/06 06:56:54;;;;;;;;;;;1.80;99.90;;;;;;5094174;28;19984;-41
2023/03/06 06:59:22;;;;;;;;;;;1.90;99.90;;;;;;5095198;28;19951;-44
2023/03/06 07:01:49;;;;;;;;;;;1.90;99.90;;;;;;5094369;28;20324;-42
2023/03/06 07:04:16;;;;;;;;;;;1.90;99.90;;;;;;5091077;28;19946;-46
2023/03/06 07:06:43;;;;;;;;;;;2.00;99.90;;;;;;5074940;28;20028;-48
2023/03/06 07:09:10;;;;;;;;;;;2.00;99.90;;;;;;5075186;28;19950;-47
2023/03/06 07:11:37;;;;;;;;;;;2.00;99.90;;;;;;5076418;28;19942;-44
2023/03/06 07:14:03;;;;;;;;;;;2.00;99.90;;;;;;5075707;28;19994;-44
2023/03/06 07:16:31;;;;;;;;;;;2.10;99.90;;;;;;5070905;28;20031;-45
2023/03/06 07:18:58;;;;;;;;;;;2.10;99.90;;;;;;5073248;28;20428;-44
2023/03/06 07:21:25;;;;;;;;;;;2.10;99.90;;;;;;5072889;28;19998;-46
2023/03/06 07:23:53;;;;;;;;;;;2.10;99.90;;;;;;5072914;28;20004;-43
2023/03/06 07:26:19;;;;;;;;;;;2.00;99.90;;;;;;5072137;28;20074;-43
2023/03/06 07:28:48;;;;;;;;;;;2.10;99.90;;;;;;5065093;28;20412;-46
2023/03/06 07:31:15;;;;;;;;;;;2.10;99.90;;;;;;5071114;28;19961;-43
2023/03/06 07:33:43;;;;;;;;;;;2.10;99.90;;;;;;5070032;28;19994;-43
2023/03/06 07:36:10;;;;;;;;;;;2.10;99.90;;;;;;5082097;28;20390;-46
2023/03/06 07:38:37;;;;;;;;;;;2.10;99.90;;;;;;5085304;28;20008;-41
2023/03/06 07:41:04;;;;;;;;;;;2.10;99.90;;;;;;5079878;28;19990;-43
2023/03/06 07:43:31;;;;;;;;;;;2.20;99.90;;;;;;5074762;28;19946;-41
2023/03/06 07:45:57;;;;;;;;;;;2.20;99.90;;;;;;5071812;28;20024;-42
2023/03/06 07:48:24;;;;;;;;;;;2.20;99.90;;;;;;5064979;28;19951;-45
2023/03/06 07:50:56;;;;;;;;;;;2.30;99.90;;;;;;5072255;28;19952;-39
2023/03/06 07:53:23;;;;;;;;;;;2.30;99.90;;;;;;5072584;28;19956;-46
2023/03/06 07:55:50;;;;;;;;;;;2.40;99.90;;;;;;5082619;28;19950;-43
2023/03/06 07:58:16;;;;;;;;;;;2.40;99.90;;;;;;5072490;28;20421;-41
2023/03/06 08:00:43;;;;;;;;;;;2.40;99.90;;;;;;5073539;28;20040;-45
2023/03/06 08:03:10;;;;;;;;;;;2.40;99.90;;;;;;5070171;28;19951;-41
2023/03/06 08:05:37;;;;;;;;;;;2.50;99.90;;;;;;5078439;28;19999;-46
2023/03/06 08:08:05;;;;;;;;;;;2.50;99.90;;;;;;5077331;28;19947;-47
2023/03/06 08:10:31;;;;;;;;;;;2.60;99.90;;;;;;5071938;28;19989;-43
2023/03/06 08:12:58;;;;;;;;;;;2.60;99.90;;;;;;5071468;28;20003;-43
2023/03/06 08:15:25;;;;;;;;;;;2.70;99.90;;;;;;5073251;28;19945;-44
2023/03/06 08:17:52;;;;;;;;;;;2.80;99.90;;;;;;5051468;28;20432;-46
2023/03/06 08:20:18;;;;;;;;;;;3.00;99.90;;;;;;5055518;28;19968;-44
2023/03/06 08:22:47;;;;;;;;;;;3.10;99.90;;;;;;5054321;28;20043;-47
2023/03/06 08:25:15;;;;;;;;;;;3.30;99.90;;;;;;5057824;28;20035;-49
2023/03/06 08:27:42;;;;;;;;;;;3.40;99.90;;;;;;5051592;28;20031;-49
2023/03/06 08:30:09;;;;;;;;;;;3.50;99.90;;;;;;5050883;28;20587;-45
2023/03/06 08:32:36;;;;;;;;;;;3.50;99.90;;;;;;5051649;28;19987;-45
2023/03/06 08:35:03;;;;;;;;;;;3.50;99.90;;;;;;5050768;28;19997;-46
2023/03/06 08:37:29;;;;;;;;;;;3.50;99.90;;;;;;5053204;28;20328;-46
2023/03/06 08:39:56;;;;;;;;;;;3.60;99.90;;;;;;5049866;28;19985;-44
2023/03/06 08:42:24;;;;;;;;;;;3.60;99.90;;;;;;5046721;28;20016;-42
2023/03/06 08:44:51;;;;;;;;;;;3.80;99.90;;;;;;5046507;28;20374;-46
2023/03/06 08:47:17;;;;;;;;;;;3.90;99.90;;;;;;5048033;28;20474;-44
2023/03/06 08:49:44;;;;;;;;;;;3.90;99.90;;;;;;5067245;28;19950;-45
2023/03/06 08:52:10;;;;;;;;;;;4.00;99.90;;;;;;5048357;28;20016;-44
2023/03/06 08:54:38;;;;;;;;;;;4.10;99.90;;;;;;5051809;28;19956;-47
2023/03/06 08:57:04;;;;;;;;;;;4.20;99.90;;;;;;5045500;28;20439;-46
2023/03/06 08:59:32;;;;;;;;;;;4.40;99.90;;;;;;5047610;28;20294;-47
2023/03/06 09:01:59;;;;;;;;;;;4.50;99.90;;;;;;5045610;28;19943;-43
2023/03/06 09:04:25;;;;;;;;;;;4.70;99.90;;;;;;5047224;28;19999;-46
2023/03/06 09:06:52;;;;;;;;;;;4.80;99.90;;;;;;5045780;28;20048;-47
2023/03/06 09:09:19;;;;;;;;;;;4.90;99.90;;;;;;5048744;28;20001;-47
2023/03/06 09:11:45;;;;;;;;;;;5.10;99.90;;;;;;5047288;28;20033;-46
2023/03/06 09:14:12;;;;;;;;;;;5.10;99.90;;;;;;5051011;28;19981;-47
2023/03/06 09:16:40;;;;;;;;;;;5.10;99.90;;;;;;5070038;28;20002;-45
2023/03/06 09:19:07;;;;;;;;;;;5.30;99.90;;;;;;5071265;28;19960;-47
2023/03/06 09:21:33;;;;;;;;;;;5.40;99.90;;;;;;5069727;28;19944;-46
2023/03/06 09:24:00;;;;;;;;;;;5.50;99.90;;;;;;5074860;28;19994;-44
2023/03/06 09:26:27;;;;;;;;;;;5.60;99.90;;;;;;5091354;28;19994;-47
2023/03/06 09:28:53;;;;;;;;;;;5.60;99.90;;;;;;5091363;28;19947;-47
2023/03/06 09:31:20;;;;;;;;;;;5.60;99.90;;;;;;5073762;28;20343;-48
2023/03/06 09:33:48;;;;;;;;;;;5.70;99.90;;;;;;5073643;28;19986;-46
2023/03/06 09:36:15;;;;;;;;;;;5.70;99.90;;;;;;5073816;28;19954;-48
2023/03/06 09:38:42;;;;;;;;;;;5.70;99.90;;;;;;5091193;28;19969;-47
2023/03/06 09:41:12;;;;;;;;;;;5.80;99.90;;;;;;5072498;28;20367;-47
2023/03/06 09:43:39;;;;;;;;;;;5.80;99.90;;;;;;5091131;28;19990;-43
2023/03/06 09:46:06;;;;;;;;;;;5.90;99.90;;;;;;5091188;28;19998;-45
2023/03/06 09:48:34;;;;;;;;;;;6.00;99.90;;;;;;5091413;28;19982;-47
2023/03/06 09:51:02;;;;;;;;;;;6.10;99.90;;;;;;5073801;28;19988;-42
2023/03/06 09:53:32;;;;;;;;;;;6.20;99.90;;;;;;5069501;28;20065;-43
2023/03/06 09:56:00;;;;;;;;;;;6.20;99.90;;;;;;5088871;28;20018;-44
2023/03/06 09:58:27;;;;;;;;;;;6.30;99.90;;;;;;5089963;28;20396;-43
2023/03/06 10:00:55;;;;;;;;;;;6.50;99.90;;;;;;5070923;28;19999;-43
2023/03/06 10:03:23;;;;;;;;;;;6.50;99.90;;;;;;5086236;28;20080;-46
2023/03/06 10:05:50;;;;;;;;;;;6.50;99.90;;;;;;5072259;28;19992;-47
2023/03/06 10:08:19;;;;;;;;;;;6.60;99.90;;;;;;5070071;28;19959;-41
2023/03/06 10:10:47;;;;;;;;;;;6.60;99.90;;;;;;5074354;28;20347;-47
2023/03/06 10:13:15;;;;;;;;;;;6.70;99.90;;;;;;5093721;28;19989;-45
2023/03/06 10:15:42;;;;;;;;;;;6.80;99.90;;;;;;5074089;28;19945;-41
2023/03/06 10:18:09;;;;;;;;;;;6.90;99.90;;;;;;5091866;28;20377;-44
2023/03/06 10:20:37;;;;;;;;;;;7.00;99.90;;;;;;5074337;28;20391;-46
2023/03/06 10:23:08;;;;;;;;;;;7.10;99.90;;;;;;5092073;28;19996;-44
2023/03/06 10:25:37;;;;;;;;;;;7.10;99.90;;;;;;5074994;28;20314;-43
2023/03/06 10:28:09;;;;;;;;;;;7.20;99.90;;;;;;5077774;28;20031;-45
2023/03/06 10:30:38;;;;;;;;;;;7.30;99.90;;;;;;5077792;28;19945;-45
2023/03/06 10:33:07;;;;;;;;;;;7.30;99.90;;;;;;5077085;28;20004;-44
2023/03/06 10:35:40;;;;;;;;;;;7.30;99.90;;;;;;5095797;28;19950;-41
2023/03/06 10:38:11;;;;;;;;;;;7.30;99.90;;;;;;5095582;28;19961;-47
2023/03/06 10:40:40;;;;;;;;;;;7.20;99.90;;;;;;5095652;28;19989;-44
2023/03/06 10:43:09;;;;;;;;;;;7.10;99.90;;;;;;5095351;28;20370;-43
2023/03/06 10:45:42;;;;;;;;;;;7.40;99.90;;;;;;5095771;28;20313;-42
2023/03/06 10:48:10;;;;;;;;;;;7.50;99.90;;;;;;5095619;28;19949;-42
2023/03/06 10:50:36;;;;;;;;;;;7.70;99.90;;;;;;5094510;28;19949;-46
2023/03/06 10:53:04;;;;;;;;;;;7.80;99.90;;;;;;5077549;28;19945;-43
2023/03/06 10:55:31;;;;;;;;;;;7.90;99.90;;;;;;5077498;28;19946;-44
2023/03/06 10:57:59;;;;;;;;;;;7.90;99.90;;;;;;5095134;28;19984;-43
2023/03/06 11:00:27;;;;;;;;;;;8.00;99.90;;;;;;5093467;28;19997;-44
2023/03/06 11:03:07;;;;;;;;;;;8.10;99.90;;;;;;5095251;28;20012;-42
2023/03/06 11:05:33;;;;;;;;;;;8.10;99.90;;;;;;5094772;28;20008;-43
2023/03/06 11:08:00;;;;;;;;;;;8.00;99.90;;;;;;5077396;28;19995;-43
2023/03/06 11:10:27;;;;;;;;;;;7.90;99.90;;;;;;5094931;28;19951;-44
2023/03/06 11:12:59;;;;;;;;;;;7.90;99.90;;;;;;5077372;28;20396;-42
2023/03/06 11:15:26;;;;;;;;;;;7.80;99.90;;;;;;5076609;28;19957;-40
2023/03/06 11:17:59;;;;;;;;;;;7.60;99.90;;;;;;5075880;28;20011;-45
2023/03/06 11:20:27;;;;;;;;;;;7.50;99.90;;;;;;5094981;28;19950;-46
2023/03/06 11:22:55;;;;;;;;;;;7.50;99.90;;;;;;5076954;28;20466;-39
2023/03/06 11:25:22;;;;;;;;;;;7.50;99.90;;;;;;5077004;28;19999;-45
2023/03/06 11:27:52;;;;;;;;;;;7.40;99.90;;;;;;5077034;28;20024;-43
2023/03/06 11:30:21;;;;;;;;;;;7.40;99.90;;;;;;5094916;28;19991;-47
2023/03/06 11:32:51;;;;;;;;;;;7.40;99.90;;;;;;5076582;28;20011;-44
2023/03/06 11:35:19;;;;;;;;;;;7.30;99.90;;;;;;5093565;28;19946;-40
2023/03/06 11:37:47;;;;;;;;;;;7.30;99.90;;;;;;5090248;28;19969;-46
2023/03/06 11:40:15;;;;;;;;;;;7.30;99.90;;;;;;5076798;28;19948;-41
2023/03/06 11:42:42;;;;;;;;;;;7.20;99.90;;;;;;5076652;28;19943;-41
2023/03/06 11:45:18;;;;;;;;;;;7.20;99.90;;;;;;5076592;28;20004;-47
2023/03/06 11:47:48;;;;;;;;;;;7.30;99.90;;;;;;5076697;28;20363;-44
2023/03/06 11:50:17;;;;;;;;;;;7.50;99.90;;;;;;5094318;28;19988;-47
2023/03/06 11:52:45;;;;;;;;;;;7.60;99.90;;;;;;5093085;28;20351;-44
2023/03/06 11:55:12;;;;;;;;;;;7.70;99.90;;;;;;5076436;28;20002;-43
2023/03/06 11:57:40;;;;;;;;;;;7.80;99.90;;;;;;5094311;28;20284;-44
2023/03/06 12:00:25;;;;;;;;;;;7.80;99.90;;;;;;5076242;28;20010;-45
2023/03/06 12:03:22;;;;;;;;;;;7.70;99.90;;;;;;5094020;28;19996;-41
2023/03/06 12:05:50;;;;;;;;;;;7.60;99.90;;;;;;4971968;28;19988;-46
2023/03/06 12:08:22;;;;;;;;;;;7.50;99.90;;;;;;5050250;28;19992;-44
2023/03/06 12:10:50;;;;;;;;;;;7.40;99.90;;;;;;5073616;28;20281;-42
2023/03/06 12:13:24;;;;;;;;;;;7.30;99.90;;;;;;5055655;28;20460;-42
2023/03/06 12:15:54;;;;;;;;;;;7.50;99.90;;;;;;5082268;28;19970;-43
2023/03/06 12:18:24;;;;;;;;;;;7.50;99.90;;;;;;5093868;28;19968;-44
2023/03/06 12:20:55;;;;;;;;;;;7.70;99.90;;;;;;5075691;28;19984;-44
2023/03/06 12:23:35;;;;;;;;;;;8.00;99.90;;;;;;5073881;28;19950;-46
2023/03/06 12:26:03;;;;;;;;;;;8.10;99.90;;;;;;5089362;28;20066;-47
2023/03/06 12:28:43;;;;;;;;;;;8.20;99.90;;;;;;5072943;28;20001;-46
2023/03/06 12:31:12;;;;;;;;;;;8.40;99.90;;;;;;5090865;28;20306;-45
2023/03/06 12:33:40;;;;;;;;;;;8.40;99.90;;;;;;5074107;28;19946;-42
2023/03/06 12:36:31;;;;;;;;;;;8.40;99.90;;;;;;5074460;28;20044;-43
2023/03/06 12:39:06;;;;;;;;;;;8.40;99.90;;;;;;5050388;28;20010;-44
2023/03/06 12:41:39;;;;;;;;;;;8.50;99.90;;;;;;5075016;28;20371;-44
2023/03/06 12:44:32;;;;;;;;;;;8.70;99.90;;;;;;5089429;28;19985;-44
2023/03/06 12:46:59;;;;;;;;;;;8.80;99.90;;;;;;5074644;28;20325;-42
2023/03/06 12:49:25;;;;;;;;;;;8.90;99.90;;;;;;5092427;28;19989;-47
2023/03/06 12:51:52;;;;;;;;;;;9.00;99.90;;;;;;5093273;28;19946;-43
2023/03/06 12:54:22;;;;;;;;;;;9.00;99.90;;;;;;5073936;28;20046;-43
2023/03/06 12:56:48;;;;;;;;;;;9.00;99.90;;;;;;5091516;28;19942;-43
2023/03/06 12:59:36;;;;;;;;;;;8.90;99.90;;;;;;5073831;28;20010;-43
2023/03/06 13:02:06;;;;;;;;;;;8.80;99.90;;;;;;5088806;28;19945;-42
2023/03/06 13:04:45;;;;;;;;;;;8.80;99.90;;;;;;5081712;28;20049;-41
2023/03/06 13:07:16;;;;;;;;;;;8.60;99.90;;;;;;5092772;28;19947;-44
2023/03/06 13:09:52;;;;;;;;;;;8.60;99.90;;;;;;5074707;28;19994;-42
2023/03/06 13:12:24;;;;;;;;;;;8.50;99.90;;;;;;5092671;28;20479;-40
2023/03/06 13:14:52;;;;;;;;;;;8.60;99.90;;;;;;5074110;28;20397;-41
2023/03/06 13:17:35;;;;;;;;;;;8.70;99.90;;;;;;5057327;28;19978;-42
2023/03/06 13:20:21;;;;;;;;;;;8.80;99.90;;;;;;5052675;28;19961;-40
2023/03/06 13:22:47;;;;;;;;;;;8.80;99.90;;;;;;5050982;28;20012;-43
2023/03/06 13:25:33;;;;;;;;;;;8.80;99.90;;;;;;5050426;28;19951;-41
2023/03/06 13:28:02;;;;;;;;;;;8.80;99.90;;;;;;5051398;28;19943;-42
2023/03/06 13:30:41;;;;;;;;;;;8.90;99.90;;;;;;5064712;28;19954;-42
2023/03/06 13:33:23;;;;;;;;;;;8.90;99.90;;;;;;5071197;28;20001;-40
2023/03/06 13:35:53;;;;;;;;;;;8.90;99.90;;;;;;5070715;28;19945;-41
2023/03/06 13:38:38;;;;;;;;;;;8.90;99.90;;;;;;5071205;28;19956;-44
2023/03/06 13:41:23;;;;;;;;;;;8.90;99.90;;;;;;5042494;28;19952;-42
2023/03/06 13:43:51;;;;;;;;;;;8.90;98.50;;;;;;5051981;28;20356;-42
2023/03/06 13:46:23;;;;;;;;;;;9.00;99.90;;;;;;5052422;28;20360;-42
2023/03/06 13:49:02;;;;;;;;;;;9.00;97.70;;;;;;5051158;28;20026;-42
2023/03/06 13:51:29;;;;;;;;;;;8.90;97.80;;;;;;5051619;28;19945;-41
2023/03/06 13:54:18;;;;;;;;;;;8.80;99.80;;;;;;5050142;28;19950;-41
2023/03/06 13:57:04;;;;;;;;;;;8.90;99.50;;;;;;5049316;28;20045;-42
2023/03/06 13:59:48;;;;;;;;;;;9.00;99.90;;;;;;5053003;28;20312;-39
2023/03/06 14:02:26;;;;;;;;;;;9.00;98.40;;;;;;5053524;28;19942;-40
2023/03/06 14:04:53;;;;;;;;;;;9.00;97.10;;;;;;5055708;28;19945;-40
2023/03/06 14:07:21;;;;;;;;;;;8.90;99.90;;;;;;5056065;28;19949;-38
2023/03/06 14:09:50;;;;;;;;;;;8.90;96.70;;;;;;5055228;28;20028;-41
2023/03/06 14:12:17;;;;;;;;;;;8.80;96.90;;;;;;5053180;28;19973;-39
2023/03/06 14:14:44;;;;;;;;;;;8.80;99.10;;;;;;5056808;28;20403;-40
2023/03/06 14:17:15;;;;;;;;;;;8.70;98.40;;;;;;5081167;28;20018;-40
2023/03/06 14:19:43;;;;;;;;;;;8.70;99.90;;;;;;5098167;28;19966;-40
2023/03/06 14:22:12;;;;;;;;;;;8.70;99.60;;;;;;5095847;28;20318;-41
2023/03/06 14:24:41;;;;;;;;;;;8.70;99.00;;;;;;5077809;28;19951;-41
2023/03/06 14:27:14;;;;;;;;;;;8.60;99.90;;;;;;5077740;28;20002;-40
2023/03/06 14:29:41;;;;;;;;;;;8.60;99.10;;;;;;5077947;28;20366;-39
2023/03/06 14:32:08;;;;;;;;;;;8.50;98.70;;;;;;5096785;28;19992;-39
2023/03/06 14:34:36;;;;;;;;;;;8.40;96.40;;;;;;5077717;28;19998;-39
2023/03/06 14:37:06;;;;;;;;;;;8.30;99.90;;;;;;5077822;28;19989;-40
2023/03/06 14:39:34;;;;;;;;;;;8.30;99.90;;;;;;5096195;28;19955;-40